sensor_id;sensor_type;location;lat;lon;timestamp;temperature;humidity
39095;DHT22;24840;47.508;19.376;2023-03-19T00:01:47;1.00;99.90
39095;DHT22;24840;47.508;19.376;2023-03-19T00:04:14;1.00;99.90
39095;DHT22;24840;47.508;19.376;2023-03-19T00:06:42;0.90;99.90
39095;DHT22;24840;47.508;19.376;2023-03-19T00:09:08;0.90;99.90
39095;DHT22;24840;47.508;19.376;2023-03-19T00:11:33;0.90;99.90
39095;DHT22;24840;47.508;19.376;2023-03-19T00:13:59;0.90;99.90
39095;DHT22;24840;47.508;19.376;2023-03-19T00:16:25;0.90;99.90
39095;DHT22;24840;47.508;19.376;2023-03-19T00:18:51;0.90;99.90
39095;DHT22;24840;47.508;19.376;2023-03-19T00:21:17;0.90;99.90
39095;DHT22;24840;47.508;19.376;2023-03-19T00:23:42;1.00;99.90
39095;DHT22;24840;47.508;19.376;2023-03-19T00:26:08;0.80;99.90
39095;DHT22;24840;47.508;19.376;2023-03-19T00:28:34;0.80;99.90
39095;DHT22;24840;47.508;19.376;2023-03-19T00:31:13;0.70;99.90
39095;DHT22;24840;47.508;19.376;2023-03-19T00:33:40;0.70;99.90
39095;DHT22;24840;47.508;19.376;2023-03-19T00:36:06;0.70;99.90
39095;DHT22;24840;47.508;19.376;2023-03-19T00:38:32;0.70;99.90
39095;DHT22;24840;47.508;19.376;2023-03-19T00:41:01;0.60;99.90
39095;DHT22;24840;47.508;19.376;2023-03-19T00:43:26;0.50;99.90
39095;DHT22;24840;47.508;19.376;2023-03-19T00:45:53;0.50;99.90
39095;DHT22;24840;47.508;19.376;2023-03-19T00:48:19;0.70;99.90
39095;DHT22;24840;47.508;19.376;2023-03-19T00:50:46;0.70;99.90
39095;DHT22;24840;47.508;19.376;2023-03-19T00:53:12;0.60;99.90
39095;DHT22;24840;47.508;19.376;2023-03-19T00:55:38;0.60;99.90
39095;DHT22;24840;47.508;19.376;2023-03-19T00:58:03;0.60;99.90
39095;DHT22;24840;47.508;19.376;2023-03-19T01:00:34;0.50;99.90
39095;DHT22;24840;47.508;19.376;2023-03-19T01:03:00;0.50;99.90
39095;DHT22;24840;47.508;19.376;2023-03-19T01:05:27;0.50;99.90
39095;DHT22;24840;47.508;19.376;2023-03-19T01:07:52;0.50;99.90
39095;DHT22;24840;47.508;19.376;2023-03-19T01:10:19;0.50;99.90
39095;DHT22;24840;47.508;19.376;2023-03-19T01:12:46;0.40;99.90
39095;DHT22;24840;47.508;19.376;2023-03-19T01:15:12;0.30;99.90
39095;DHT22;24840;47.508;19.376;2023-03-19T01:17:37;0.30;99.90
39095;DHT22;24840;47.508;19.376;2023-03-19T01:20:04;0.30;99.90
39095;DHT22;24840;47.508;19.376;2023-03-19T01:22:36;0.20;99.90
39095;DHT22;24840;47.508;19.376;2023-03-19T01:25:04;0.30;99.90
39095;DHT22;24840;47.508;19.376;2023-03-19T01:27:30;0.30;99.90
39095;DHT22;24840;47.508;19.376;2023-03-19T01:29:56;0.30;99.90
39095;DHT22;24840;47.508;19.376;2023-03-19T01:32:21;0.20;99.90
39095;DHT22;24840;47.508;19.376;2023-03-19T01:34:47;0.10;99.90
39095;DHT22;24840;47.508;19.376;2023-03-19T01:37:13;0.20;99.90
39095;DHT22;24840;47.508;19.376;2023-03-19T01:39:39;0.10;99.90
39095;DHT22;24840;47.508;19.376;2023-03-19T01:42:06;0.00;99.90
39095;DHT22;24840;47.508;19.376;2023-03-19T01:44:37;0.10;99.90
39095;DHT22;24840;47.508;19.376;2023-03-19T01:47:24;0.10;99.90
39095;DHT22;24840;47.508;19.376;2023-03-19T01:49:55;0.20;99.90
39095;DHT22;24840;47.508;19.376;2023-03-19T01:52:23;0.20;99.90
39095;DHT22;24840;47.508;19.376;2023-03-19T01:54:51;0.20;99.90
39095;DHT22;24840;47.508;19.376;2023-03-19T01:57:19;0.20;99.90
39095;DHT22;24840;47.508;19.376;2023-03-19T01:59:56;0.10;99.90
39095;DHT22;24840;47.508;19.376;2023-03-19T02:02:26;0.00;99.90
39095;DHT22;24840;47.508;19.376;2023-03-19T02:05:06;0.00;99.90
39095;DHT22;24840;47.508;19.376;2023-03-19T02:07:34;0.00;99.90
39095;DHT22;24840;47.508;19.376;2023-03-19T02:10:04;0.00;99.90
39095;DHT22;24840;47.508;19.376;2023-03-19T02:12:32;-0.10;99.90
39095;DHT22;24840;47.508;19.376;2023-03-19T02:14:58;0.00;99.90
39095;DHT22;24840;47.508;19.376;2023-03-19T02:17:24;0.00;99.90
39095;DHT22;24840;47.508;19.376;2023-03-19T02:20:10;0.00;99.90
39095;DHT22;24840;47.508;19.376;2023-03-19T02:28:09;0.00;99.90
39095;DHT22;24840;47.508;19.376;2023-03-19T02:30:35;0.00;99.90
39095;DHT22;24840;47.508;19.376;2023-03-19T02:33:02;-0.10;99.90
39095;DHT22;24840;47.508;19.376;2023-03-19T02:35:31;-0.20;99.90
39095;DHT22;24840;47.508;19.376;2023-03-19T02:37:57;-0.20;99.90
39095;DHT22;24840;47.508;19.376;2023-03-19T02:40:30;-0.20;99.90
39095;DHT22;24840;47.508;19.376;2023-03-19T02:42:58;-0.20;99.90
39095;DHT22;24840;47.508;19.376;2023-03-19T02:45:27;-0.10;99.90
39095;DHT22;24840;47.508;19.376;2023-03-19T02:47:54;-0.20;99.90
39095;DHT22;24840;47.508;19.376;2023-03-19T02:50:20;-0.30;99.90
39095;DHT22;24840;47.508;19.376;2023-03-19T02:52:46;-0.30;99.90
39095;DHT22;24840;47.508;19.376;2023-03-19T02:55:11;-0.50;99.90
39095;DHT22;24840;47.508;19.376;2023-03-19T02:57:37;-0.40;99.90
39095;DHT22;24840;47.508;19.376;2023-03-19T03:00:05;-0.30;99.90
39095;DHT22;24840;47.508;19.376;2023-03-19T03:02:31;-0.40;99.90
39095;DHT22;24840;47.508;19.376;2023-03-19T03:04:57;-0.40;99.90
39095;DHT22;24840;47.508;19.376;2023-03-19T03:07:22;-0.50;99.90
39095;DHT22;24840;47.508;19.376;2023-03-19T03:09:48;-0.50;99.90
39095;DHT22;24840;47.508;19.376;2023-03-19T03:12:14;-0.40;99.90
39095;DHT22;24840;47.508;19.376;2023-03-19T03:14:40;-0.40;99.90
39095;DHT22;24840;47.508;19.376;2023-03-19T03:17:06;-0.60;99.90
39095;DHT22;24840;47.508;19.376;2023-03-19T03:19:33;-0.50;99.90
39095;DHT22;24840;47.508;19.376;2023-03-19T03:21:59;-0.60;99.90
39095;DHT22;24840;47.508;19.376;2023-03-19T03:24:26;-0.50;99.90
39095;DHT22;24840;47.508;19.376;2023-03-19T03:26:52;-0.60;99.90
39095;DHT22;24840;47.508;19.376;2023-03-19T03:29:18;-0.80;99.90
39095;DHT22;24840;47.508;19.376;2023-03-19T03:31:44;-0.90;99.90
39095;DHT22;24840;47.508;19.376;2023-03-19T03:34:09;-0.80;99.90
39095;DHT22;24840;47.508;19.376;2023-03-19T03:36:35;-0.80;99.90
39095;DHT22;24840;47.508;19.376;2023-03-19T03:39:02;-0.80;99.90
39095;DHT22;24840;47.508;19.376;2023-03-19T03:41:28;-0.80;99.90
39095;DHT22;24840;47.508;19.376;2023-03-19T03:43:54;-0.90;99.90
39095;DHT22;24840;47.508;19.376;2023-03-19T03:46:21;-0.90;99.90
39095;DHT22;24840;47.508;19.376;2023-03-19T03:48:46;-1.00;99.90
39095;DHT22;24840;47.508;19.376;2023-03-19T03:51:14;-0.90;99.90
39095;DHT22;24840;47.508;19.376;2023-03-19T03:53:40;-1.00;99.90
39095;DHT22;24840;47.508;19.376;2023-03-19T03:56:06;-1.00;99.90
39095;DHT22;24840;47.508;19.376;2023-03-19T03:58:31;-0.90;99.90
39095;DHT22;24840;47.508;19.376;2023-03-19T04:00:57;-1.00;99.90
39095;DHT22;24840;47.508;19.376;2023-03-19T04:03:23;-1.00;99.90
39095;DHT22;24840;47.508;19.376;2023-03-19T04:05:49;-1.10;99.90
39095;DHT22;24840;47.508;19.376;2023-03-19T04:08:15;-1.10;99.90
39095;DHT22;24840;47.508;19.376;2023-03-19T04:10:41;-1.30;99.90
39095;DHT22;24840;47.508;19.376;2023-03-19T04:13:11;-1.40;99.90
39095;DHT22;24840;47.508;19.376;2023-03-19T04:15:37;-1.40;99.90
39095;DHT22;24840;47.508;19.376;2023-03-19T04:18:03;-1.30;99.90
39095;DHT22;24840;47.508;19.376;2023-03-19T04:20:29;-1.20;99.90
39095;DHT22;24840;47.508;19.376;2023-03-19T04:22:55;-1.20;99.90
39095;DHT22;24840;47.508;19.376;2023-03-19T04:25:21;-1.20;99.90
39095;DHT22;24840;47.508;19.376;2023-03-19T04:27:47;-1.10;99.90
39095;DHT22;24840;47.508;19.376;2023-03-19T04:30:13;-1.20;99.90
39095;DHT22;24840;47.508;19.376;2023-03-19T04:32:40;-1.10;99.90
39095;DHT22;24840;47.508;19.376;2023-03-19T04:35:06;-1.20;99.90
39095;DHT22;24840;47.508;19.376;2023-03-19T04:37:32;-1.20;99.90
39095;DHT22;24840;47.508;19.376;2023-03-19T04:39:58;-1.20;99.90
39095;DHT22;24840;47.508;19.376;2023-03-19T04:42:24;-1.10;99.90
39095;DHT22;24840;47.508;19.376;2023-03-19T04:44:50;-1.10;99.90
39095;DHT22;24840;47.508;19.376;2023-03-19T04:47:17;-1.20;99.90
39095;DHT22;24840;47.508;19.376;2023-03-19T04:49:43;-1.10;99.90
39095;DHT22;24840;47.508;19.376;2023-03-19T04:52:08;-1.20;99.90
39095;DHT22;24840;47.508;19.376;2023-03-19T04:54:34;-1.20;99.90
39095;DHT22;24840;47.508;19.376;2023-03-19T04:57:00;-1.30;99.90
39095;DHT22;24840;47.508;19.376;2023-03-19T04:59:26;-1.20;99.90
39095;DHT22;24840;47.508;19.376;2023-03-19T05:01:51;-1.30;99.90
39095;DHT22;24840;47.508;19.376;2023-03-19T05:04:17;-1.40;99.90
39095;DHT22;24840;47.508;19.376;2023-03-19T05:06:43;-1.20;99.90
39095;DHT22;24840;47.508;19.376;2023-03-19T05:09:09;-1.20;99.90
39095;DHT22;24840;47.508;19.376;2023-03-19T05:11:35;-1.10;99.90
39095;DHT22;24840;47.508;19.376;2023-03-19T05:14:00;-1.30;99.90
39095;DHT22;24840;47.508;19.376;2023-03-19T05:16:26;-1.30;99.90
39095;DHT22;24840;47.508;19.376;2023-03-19T05:18:52;-1.30;99.90
39095;DHT22;24840;47.508;19.376;2023-03-19T05:21:18;-1.30;99.90
39095;DHT22;24840;47.508;19.376;2023-03-19T05:23:44;-1.20;99.90
39095;DHT22;24840;47.508;19.376;2023-03-19T05:26:10;-1.10;99.90
39095;DHT22;24840;47.508;19.376;2023-03-19T05:28:36;-1.10;99.90
39095;DHT22;24840;47.508;19.376;2023-03-19T05:31:03;-1.00;99.90
39095;DHT22;24840;47.508;19.376;2023-03-19T05:33:29;-1.00;99.90
39095;DHT22;24840;47.508;19.376;2023-03-19T05:35:55;-1.10;99.90
39095;DHT22;24840;47.508;19.376;2023-03-19T05:38:21;-1.00;99.90
39095;DHT22;24840;47.508;19.376;2023-03-19T05:40:47;-1.10;99.90
39095;DHT22;24840;47.508;19.376;2023-03-19T05:43:12;-1.00;99.90
39095;DHT22;24840;47.508;19.376;2023-03-19T05:45:39;-0.80;99.90
39095;DHT22;24840;47.508;19.376;2023-03-19T05:48:05;-0.80;99.90
39095;DHT22;24840;47.508;19.376;2023-03-19T05:50:31;-0.80;99.90
39095;DHT22;24840;47.508;19.376;2023-03-19T05:52:59;-0.60;99.90
39095;DHT22;24840;47.508;19.376;2023-03-19T05:55:25;-0.60;99.90
39095;DHT22;24840;47.508;19.376;2023-03-19T05:57:50;-0.60;99.90
39095;DHT22;24840;47.508;19.376;2023-03-19T06:00:17;-0.50;99.90
39095;DHT22;24840;47.508;19.376;2023-03-19T06:02:43;-0.40;99.90
39095;DHT22;24840;47.508;19.376;2023-03-19T06:05:09;-0.40;99.90
39095;DHT22;24840;47.508;19.376;2023-03-19T06:07:36;-0.30;99.90
39095;DHT22;24840;47.508;19.376;2023-03-19T06:10:03;-0.30;99.90
39095;DHT22;24840;47.508;19.376;2023-03-19T06:12:29;-0.10;99.90
39095;DHT22;24840;47.508;19.376;2023-03-19T06:14:55;0.00;99.90
39095;DHT22;24840;47.508;19.376;2023-03-19T06:17:21;0.10;99.90
39095;DHT22;24840;47.508;19.376;2023-03-19T06:19:47;0.20;99.90
39095;DHT22;24840;47.508;19.376;2023-03-19T06:22:13;0.40;99.90
39095;DHT22;24840;47.508;19.376;2023-03-19T06:24:38;0.60;99.90
39095;DHT22;24840;47.508;19.376;2023-03-19T06:27:04;0.70;99.90
39095;DHT22;24840;47.508;19.376;2023-03-19T06:29:30;0.70;99.90
39095;DHT22;24840;47.508;19.376;2023-03-19T06:31:56;0.90;99.90
39095;DHT22;24840;47.508;19.376;2023-03-19T06:34:22;1.00;99.90
39095;DHT22;24840;47.508;19.376;2023-03-19T06:36:47;1.30;99.90
39095;DHT22;24840;47.508;19.376;2023-03-19T06:39:13;1.40;99.90
39095;DHT22;24840;47.508;19.376;2023-03-19T06:41:40;1.70;99.90
39095;DHT22;24840;47.508;19.376;2023-03-19T06:44:06;2.00;99.90
39095;DHT22;24840;47.508;19.376;2023-03-19T06:46:32;2.30;99.90
39095;DHT22;24840;47.508;19.376;2023-03-19T06:48:58;2.50;99.90
39095;DHT22;24840;47.508;19.376;2023-03-19T06:51:23;3.10;99.90
39095;DHT22;24840;47.508;19.376;2023-03-19T06:53:52;3.50;99.90
39095;DHT22;24840;47.508;19.376;2023-03-19T06:56:18;4.00;99.90
39095;DHT22;24840;47.508;19.376;2023-03-19T06:58:43;4.40;99.90
39095;DHT22;24840;47.508;19.376;2023-03-19T07:01:18;4.90;99.90
39095;DHT22;24840;47.508;19.376;2023-03-19T07:03:44;5.10;99.90
39095;DHT22;24840;47.508;19.376;2023-03-19T07:06:10;5.50;99.90
39095;DHT22;24840;47.508;19.376;2023-03-19T07:08:36;5.90;99.90
39095;DHT22;24840;47.508;19.376;2023-03-19T07:11:03;6.00;97.70
39095;DHT22;24840;47.508;19.376;2023-03-19T07:13:29;6.30;98.30
39095;DHT22;24840;47.508;19.376;2023-03-19T07:15:55;6.40;96.80
39095;DHT22;24840;47.508;19.376;2023-03-19T07:18:21;6.40;97.30
39095;DHT22;24840;47.508;19.376;2023-03-19T07:20:46;6.90;98.90
39095;DHT22;24840;47.508;19.376;2023-03-19T07:23:12;7.20;95.50
39095;DHT22;24840;47.508;19.376;2023-03-19T07:25:38;7.50;96.10
39095;DHT22;24840;47.508;19.376;2023-03-19T07:28:04;7.70;96.40
39095;DHT22;24840;47.508;19.376;2023-03-19T07:30:29;7.70;94.30
39095;DHT22;24840;47.508;19.376;2023-03-19T07:32:55;7.70;93.70
39095;DHT22;24840;47.508;19.376;2023-03-19T07:35:21;7.90;92.90
39095;DHT22;24840;47.508;19.376;2023-03-19T07:37:47;8.30;93.40
39095;DHT22;24840;47.508;19.376;2023-03-19T07:40:13;8.30;92.50
39095;DHT22;24840;47.508;19.376;2023-03-19T07:42:38;8.50;91.60
39095;DHT22;24840;47.508;19.376;2023-03-19T07:45:05;8.90;92.60
39095;DHT22;24840;47.508;19.376;2023-03-19T07:47:31;9.20;91.70
39095;DHT22;24840;47.508;19.376;2023-03-19T07:49:57;9.30;90.70
39095;DHT22;24840;47.508;19.376;2023-03-19T07:52:24;9.40;89.80
39095;DHT22;24840;47.508;19.376;2023-03-19T07:54:50;9.60;87.60
39095;DHT22;24840;47.508;19.376;2023-03-19T07:57:16;9.20;88.60
39095;DHT22;24840;47.508;19.376;2023-03-19T07:59:44;9.60;89.00
39095;DHT22;24840;47.508;19.376;2023-03-19T08:02:11;10.10;88.30
39095;DHT22;24840;47.508;19.376;2023-03-19T08:04:37;10.40;88.50
39095;DHT22;24840;47.508;19.376;2023-03-19T08:07:02;10.80;83.90
39095;DHT22;24840;47.508;19.376;2023-03-19T08:09:28;11.00;84.00
39095;DHT22;24840;47.508;19.376;2023-03-19T08:11:54;11.10;82.80
39095;DHT22;24840;47.508;19.376;2023-03-19T08:14:20;11.00;79.80
39095;DHT22;24840;47.508;19.376;2023-03-19T08:16:47;10.30;77.60
39095;DHT22;24840;47.508;19.376;2023-03-19T08:19:13;10.50;78.70
39095;DHT22;24840;47.508;19.376;2023-03-19T08:21:39;10.80;79.10
39095;DHT22;24840;47.508;19.376;2023-03-19T08:24:05;11.00;76.50
39095;DHT22;24840;47.508;19.376;2023-03-19T08:26:31;11.00;78.00
39095;DHT22;24840;47.508;19.376;2023-03-19T08:28:58;11.60;76.70
39095;DHT22;24840;47.508;19.376;2023-03-19T08:31:23;11.60;76.00
39095;DHT22;24840;47.508;19.376;2023-03-19T08:33:49;11.30;75.10
39095;DHT22;24840;47.508;19.376;2023-03-19T08:36:15;11.60;76.90
39095;DHT22;24840;47.508;19.376;2023-03-19T08:38:42;11.50;73.80
39095;DHT22;24840;47.508;19.376;2023-03-19T08:41:08;11.40;73.90
39095;DHT22;24840;47.508;19.376;2023-03-19T08:43:35;12.00;76.60
39095;DHT22;24840;47.508;19.376;2023-03-19T08:46:02;12.90;74.40
39095;DHT22;24840;47.508;19.376;2023-03-19T08:48:28;13.50;71.90
39095;DHT22;24840;47.508;19.376;2023-03-19T08:51:00;13.10;68.40
39095;DHT22;24840;47.508;19.376;2023-03-19T08:53:27;12.00;68.90
39095;DHT22;24840;47.508;19.376;2023-03-19T08:55:58;12.40;73.00
39095;DHT22;24840;47.508;19.376;2023-03-19T08:58:24;12.70;67.90
39095;DHT22;24840;47.508;19.376;2023-03-19T09:01:00;13.30;69.90
39095;DHT22;24840;47.508;19.376;2023-03-19T09:03:27;12.80;67.80
39095;DHT22;24840;47.508;19.376;2023-03-19T09:05:56;13.40;67.80
39095;DHT22;24840;47.508;19.376;2023-03-19T09:08:22;13.20;66.10
39095;DHT22;24840;47.508;19.376;2023-03-19T09:10:48;12.80;66.20
39095;DHT22;24840;47.508;19.376;2023-03-19T09:13:13;13.40;68.10
39095;DHT22;24840;47.508;19.376;2023-03-19T09:15:39;13.40;62.20
39095;DHT22;24840;47.508;19.376;2023-03-19T09:18:25;14.20;66.10
39095;DHT22;24840;47.508;19.376;2023-03-19T09:20:51;15.80;66.20
39095;DHT22;24840;47.508;19.376;2023-03-19T09:23:18;14.60;59.40
39095;DHT22;24840;47.508;19.376;2023-03-19T09:25:44;14.50;60.20
39095;DHT22;24840;47.508;19.376;2023-03-19T09:28:10;14.90;60.60
39095;DHT22;24840;47.508;19.376;2023-03-19T09:30:37;14.70;59.40
39095;DHT22;24840;47.508;19.376;2023-03-19T09:33:04;15.10;61.30
39095;DHT22;24840;47.508;19.376;2023-03-19T09:35:31;14.60;56.40
39095;DHT22;24840;47.508;19.376;2023-03-19T09:37:58;14.80;60.00
39095;DHT22;24840;47.508;19.376;2023-03-19T09:40:32;15.00;59.90
39095;DHT22;24840;47.508;19.376;2023-03-19T09:45:44;15.10;57.00
39095;DHT22;24840;47.508;19.376;2023-03-19T09:48:18;15.20;60.10
39095;DHT22;24840;47.508;19.376;2023-03-19T09:50:47;15.90;58.70
39095;DHT22;24840;47.508;19.376;2023-03-19T09:56:06;15.70;60.40
39095;DHT22;24840;47.508;19.376;2023-03-19T09:58:35;15.80;58.20
39095;DHT22;24840;47.508;19.376;2023-03-19T10:01:02;15.10;56.50
39095;DHT22;24840;47.508;19.376;2023-03-19T10:06:29;15.10;59.50
39095;DHT22;24840;47.508;19.376;2023-03-19T10:09:13;15.90;57.20
39095;DHT22;24840;47.508;19.376;2023-03-19T10:11:58;16.20;59.30
39095;DHT22;24840;47.508;19.376;2023-03-19T10:17:11;17.10;57.60
39095;DHT22;24840;47.508;19.376;2023-03-19T10:19:50;17.00;56.80
39095;DHT22;24840;47.508;19.376;2023-03-19T10:22:31;17.00;56.10
39095;DHT22;24840;47.508;19.376;2023-03-19T10:25:01;16.40;60.60
39095;DHT22;24840;47.508;19.376;2023-03-19T10:27:27;16.80;57.20
39095;DHT22;24840;47.508;19.376;2023-03-19T10:29:55;18.00;58.90
39095;DHT22;24840;47.508;19.376;2023-03-19T10:32:43;18.70;55.80
39095;DHT22;24840;47.508;19.376;2023-03-19T10:35:22;18.40;52.80
39095;DHT22;24840;47.508;19.376;2023-03-19T10:37:49;18.10;54.50
39095;DHT22;24840;47.508;19.376;2023-03-19T10:40:33;17.90;55.00
39095;DHT22;24840;47.508;19.376;2023-03-19T10:43:18;18.20;55.90
39095;DHT22;24840;47.508;19.376;2023-03-19T10:45:45;18.00;53.60
39095;DHT22;24840;47.508;19.376;2023-03-19T10:48:14;18.40;55.50
39095;DHT22;24840;47.508;19.376;2023-03-19T10:50:51;18.30;54.40
39095;DHT22;24840;47.508;19.376;2023-03-19T10:55:55;18.50;56.20
39095;DHT22;24840;47.508;19.376;2023-03-19T10:58:27;17.80;52.20
39095;DHT22;24840;47.508;19.376;2023-03-19T11:01:10;17.70;51.80
39095;DHT22;24840;47.508;19.376;2023-03-19T11:03:38;17.40;51.70
39095;DHT22;24840;47.508;19.376;2023-03-19T11:08:56;18.10;51.00
39095;DHT22;24840;47.508;19.376;2023-03-19T11:14:23;18.80;50.30
39095;DHT22;24840;47.508;19.376;2023-03-19T11:16:55;18.20;49.30
39095;DHT22;24840;47.508;19.376;2023-03-19T11:19:26;19.50;49.50
39095;DHT22;24840;47.508;19.376;2023-03-19T11:28:11;17.10;50.30
39095;DHT22;24840;47.508;19.376;2023-03-19T11:34:22;19.50;50.90
39095;DHT22;24840;47.508;19.376;2023-03-19T11:37:10;20.00;47.30
39095;DHT22;24840;47.508;19.376;2023-03-19T11:45:34;19.70;45.60
39095;DHT22;24840;47.508;19.376;2023-03-19T12:18:00;21.40;47.00
39095;DHT22;24840;47.508;19.376;2023-03-19T12:23:15;21.00;45.80
39095;DHT22;24840;47.508;19.376;2023-03-19T12:28:17;19.30;47.40
39095;DHT22;24840;47.508;19.376;2023-03-19T12:36:28;21.00;47.00
39095;DHT22;24840;47.508;19.376;2023-03-19T12:39:16;19.90;46.10
39095;DHT22;24840;47.508;19.376;2023-03-19T12:41:45;20.70;45.80
39095;DHT22;24840;47.508;19.376;2023-03-19T12:44:20;20.60;48.60
39095;DHT22;24840;47.508;19.376;2023-03-19T12:47:15;20.60;47.70
39095;DHT22;24840;47.508;19.376;2023-03-19T12:50:15;21.00;47.90
39095;DHT22;24840;47.508;19.376;2023-03-19T12:52:49;20.80;45.10
39095;DHT22;24840;47.508;19.376;2023-03-19T12:57:57;20.00;45.50
39095;DHT22;24840;47.508;19.376;2023-03-19T13:00:47;20.20;45.70
39095;DHT22;24840;47.508;19.376;2023-03-19T13:03:58;19.80;48.10
39095;DHT22;24840;47.508;19.376;2023-03-19T13:06:33;20.30;46.90
39095;DHT22;24840;47.508;19.376;2023-03-19T13:14:37;21.90;46.60
39095;DHT22;24840;47.508;19.376;2023-03-19T13:19:54;21.40;47.80
39095;DHT22;24840;47.508;19.376;2023-03-19T13:22:27;21.30;45.20
39095;DHT22;24840;47.508;19.376;2023-03-19T13:24:54;21.20;46.30
39095;DHT22;24840;47.508;19.376;2023-03-19T13:27:21;20.50;44.00
39095;DHT22;24840;47.508;19.376;2023-03-19T13:38:17;21.00;47.10
39095;DHT22;24840;47.508;19.376;2023-03-19T13:48:50;18.70;48.30
39095;DHT22;24840;47.508;19.376;2023-03-19T13:56:28;17.60;50.50
39095;DHT22;24840;47.508;19.376;2023-03-19T14:01:40;18.40;48.80
39095;DHT22;24840;47.508;19.376;2023-03-19T14:04:26;18.00;47.90
39095;DHT22;24840;47.508;19.376;2023-03-19T14:07:15;17.80;49.90
39095;DHT22;24840;47.508;19.376;2023-03-19T14:09:45;17.40;49.30
39095;DHT22;24840;47.508;19.376;2023-03-19T14:15:20;17.20;50.60
39095;DHT22;24840;47.508;19.376;2023-03-19T14:31:39;17.90;49.70
39095;DHT22;24840;47.508;19.376;2023-03-19T14:36:40;18.60;48.80
39095;DHT22;24840;47.508;19.376;2023-03-19T14:39:21;18.40;46.40
39095;DHT22;24840;47.508;19.376;2023-03-19T14:41:53;17.90;48.40
39095;DHT22;24840;47.508;19.376;2023-03-19T14:44:33;17.60;48.90
39095;DHT22;24840;47.508;19.376;2023-03-19T14:55:40;17.40;50.90
39095;DHT22;24840;47.508;19.376;2023-03-19T14:58:12;17.20;48.90
39095;DHT22;24840;47.508;19.376;2023-03-19T15:00:46;17.00;48.80
39095;DHT22;24840;47.508;19.376;2023-03-19T15:03:34;17.00;50.10
39095;DHT22;24840;47.508;19.376;2023-03-19T15:06:06;17.00;50.30
39095;DHT22;24840;47.508;19.376;2023-03-19T15:08:34;16.70;50.90
39095;DHT22;24840;47.508;19.376;2023-03-19T15:19:09;18.20;50.10
39095;DHT22;24840;47.508;19.376;2023-03-19T15:21:37;17.80;48.50
39095;DHT22;24840;47.508;19.376;2023-03-19T15:24:04;17.80;49.90
39095;DHT22;24840;47.508;19.376;2023-03-19T15:26:33;18.00;50.20
39095;DHT22;24840;47.508;19.376;2023-03-19T15:29:00;17.90;49.90
39095;DHT22;24840;47.508;19.376;2023-03-19T15:31:45;17.70;49.80
39095;DHT22;24840;47.508;19.376;2023-03-19T15:34:23;17.70;50.60
39095;DHT22;24840;47.508;19.376;2023-03-19T15:37:13;17.50;49.10
39095;DHT22;24840;47.508;19.376;2023-03-19T15:39:44;17.40;50.20
39095;DHT22;24840;47.508;19.376;2023-03-19T15:42:15;17.20;49.20
39095;DHT22;24840;47.508;19.376;2023-03-19T15:44:54;16.80;50.30
39095;DHT22;24840;47.508;19.376;2023-03-19T15:47:25;16.50;51.00
39095;DHT22;24840;47.508;19.376;2023-03-19T15:50:06;16.30;51.70
39095;DHT22;24840;47.508;19.376;2023-03-19T15:52:37;16.20;53.40
39095;DHT22;24840;47.508;19.376;2023-03-19T15:55:05;16.10;53.40
39095;DHT22;24840;47.508;19.376;2023-03-19T15:57:32;15.90;52.50
39095;DHT22;24840;47.508;19.376;2023-03-19T15:59:59;15.90;53.50
39095;DHT22;24840;47.508;19.376;2023-03-19T16:02:28;15.90;53.80
39095;DHT22;24840;47.508;19.376;2023-03-19T16:04:55;15.90;54.10
39095;DHT22;24840;47.508;19.376;2023-03-19T16:09:52;15.60;53.10
39095;DHT22;24840;47.508;19.376;2023-03-19T16:12:37;15.40;53.90
39095;DHT22;24840;47.508;19.376;2023-03-19T16:15:30;15.20;54.30
39095;DHT22;24840;47.508;19.376;2023-03-19T16:18:29;15.10;57.40
39095;DHT22;24840;47.508;19.376;2023-03-19T16:21:12;14.90;59.00
39095;DHT22;24840;47.508;19.376;2023-03-19T16:23:51;14.60;59.90
39095;DHT22;24840;47.508;19.376;2023-03-19T16:26:24;14.30;62.50
39095;DHT22;24840;47.508;19.376;2023-03-19T16:29:29;14.10;63.40
39095;DHT22;24840;47.508;19.376;2023-03-19T16:32:03;14.20;64.90
39095;DHT22;24840;47.508;19.376;2023-03-19T16:34:42;13.80;64.50
39095;DHT22;24840;47.508;19.376;2023-03-19T16:37:37;13.80;65.10
39095;DHT22;24840;47.508;19.376;2023-03-19T16:42:54;13.10;66.50
39095;DHT22;24840;47.508;19.376;2023-03-19T16:45:27;12.70;68.60
39095;DHT22;24840;47.508;19.376;2023-03-19T16:47:54;12.80;68.50
39095;DHT22;24840;47.508;19.376;2023-03-19T16:50:28;12.50;67.60
39095;DHT22;24840;47.508;19.376;2023-03-19T16:52:54;12.30;69.30
39095;DHT22;24840;47.508;19.376;2023-03-19T16:55:23;12.30;69.00
39095;DHT22;24840;47.508;19.376;2023-03-19T16:57:55;11.90;69.00
39095;DHT22;24840;47.508;19.376;2023-03-19T17:00:23;11.50;69.40
39095;DHT22;24840;47.508;19.376;2023-03-19T17:02:53;11.30;71.10
39095;DHT22;24840;47.508;19.376;2023-03-19T17:05:23;11.20;70.50
39095;DHT22;24840;47.508;19.376;2023-03-19T17:07:49;11.40;69.70
39095;DHT22;24840;47.508;19.376;2023-03-19T17:10:19;11.00;70.50
39095;DHT22;24840;47.508;19.376;2023-03-19T17:12:47;11.00;69.90
39095;DHT22;24840;47.508;19.376;2023-03-19T17:15:26;10.90;71.10
39095;DHT22;24840;47.508;19.376;2023-03-19T17:17:53;10.60;73.60
39095;DHT22;24840;47.508;19.376;2023-03-19T17:20:35;10.50;75.00
39095;DHT22;24840;47.508;19.376;2023-03-19T17:23:09;10.50;74.30
39095;DHT22;24840;47.508;19.376;2023-03-19T17:25:35;10.40;73.70
39095;DHT22;24840;47.508;19.376;2023-03-19T17:28:01;10.70;72.70
39095;DHT22;24840;47.508;19.376;2023-03-19T17:30:27;10.70;73.20
39095;DHT22;24840;47.508;19.376;2023-03-19T17:32:52;10.20;75.00
39095;DHT22;24840;47.508;19.376;2023-03-19T17:35:21;10.10;74.40
39095;DHT22;24840;47.508;19.376;2023-03-19T17:37:47;10.20;75.10
39095;DHT22;24840;47.508;19.376;2023-03-19T17:40:16;10.20;75.40
39095;DHT22;24840;47.508;19.376;2023-03-19T17:42:42;10.10;76.30
39095;DHT22;24840;47.508;19.376;2023-03-19T17:45:12;9.90;77.80
39095;DHT22;24840;47.508;19.376;2023-03-19T17:47:38;9.70;76.50
39095;DHT22;24840;47.508;19.376;2023-03-19T17:50:04;9.60;75.80
39095;DHT22;24840;47.508;19.376;2023-03-19T17:52:32;9.70;76.50
39095;DHT22;24840;47.508;19.376;2023-03-19T17:55:00;9.70;77.20
39095;DHT22;24840;47.508;19.376;2023-03-19T17:57:27;9.70;77.20
39095;DHT22;24840;47.508;19.376;2023-03-19T17:59:52;9.60;78.70
39095;DHT22;24840;47.508;19.376;2023-03-19T18:02:24;9.50;78.50
39095;DHT22;24840;47.508;19.376;2023-03-19T18:04:51;9.60;77.50
39095;DHT22;24840;47.508;19.376;2023-03-19T18:07:16;9.70;77.70
39095;DHT22;24840;47.508;19.376;2023-03-19T18:09:42;9.60;78.60
39095;DHT22;24840;47.508;19.376;2023-03-19T18:12:08;9.50;79.30